Time;durP1;ratioP1;P1;durP2;ratioP2;P2;SDS_P1;SDS_P2;PMS_P1;PMS_P2;Temp;Humidity;BMP_temperature;BMP_pressure;BME280_temperature;BME280_humidity;BME280_pressure;Samples;Min_cycle;Max_cycle;Signal;HPM_P1;HPM_P2
2022/04/23 00:01:28;;;;;;;17.45;9.13;;;;;;;11.01;74.58;100705.28;5025527;28;20049;-70
2022/04/23 00:03:58;;;;;;;17.38;10.95;;;;;;;10.99;75.04;100707.00;5026272;28;20126;-70
2022/04/23 00:06:26;;;;;;;15.75;9.77;;;;;;;11.00;75.09;100701.78;5025348;28;20068;-70
2022/04/23 00:08:55;;;;;;;19.92;11.30;;;;;;;10.98;75.26;100707.88;5025901;28;20052;-70
2022/04/23 00:11:23;;;;;;;15.15;10.15;;;;;;;10.92;75.75;100706.06;5021465;28;20133;-69
2022/04/23 00:13:55;;;;;;;17.92;9.40;;;;;;;10.85;76.30;100713.88;5023615;28;20049;-71
2022/04/23 00:16:24;;;;;;;19.52;10.68;;;;;;;10.82;76.52;100712.09;5021168;28;20491;-70
2022/04/23 00:18:53;;;;;;;17.40;9.95;;;;;;;10.78;76.37;100705.06;5021238;28;20045;-69
2022/04/23 00:21:26;;;;;;;18.30;10.35;;;;;;;10.74;76.82;100706.78;5027014;28;20053;-70
2022/04/23 00:23:56;;;;;;;17.45;10.57;;;;;;;10.78;76.83;100700.69;5026543;28;20541;-70
2022/04/23 00:26:26;;;;;;;19.63;10.95;;;;;;;10.72;77.16;100698.00;5022928;28;20184;-69
2022/04/23 00:28:54;;;;;;;18.83;10.82;;;;;;;10.72;77.17;100698.00;5022640;28;20452;-76
2022/04/23 00:31:26;;;;;;;18.63;10.50;;;;;;;10.74;77.39;100698.03;5026244;28;20053;-74
2022/04/23 00:33:56;;;;;;;20.17;11.82;;;;;;;10.79;77.04;100702.44;5023432;28;20055;-75
2022/04/23 00:36:28;;;;;;;17.85;10.82;;;;;;;10.75;77.30;100703.28;5027039;28;20053;-75
2022/04/23 00:38:59;;;;;;;20.63;11.23;;;;;;;10.74;77.66;100698.03;5025020;28;20639;-76
2022/04/23 00:41:45;;;;;;;22.25;12.32;;;;;;;10.76;77.75;100697.16;5026268;28;20068;-74
2022/04/23 00:44:17;;;;;;;20.35;11.98;;;;;;;10.79;77.59;100698.94;5023323;28;20596;-76
2022/04/23 00:46:48;;;;;;;19.42;11.60;;;;;;;10.77;78.00;100696.31;5023667;28;20081;-74
2022/04/23 00:49:19;;;;;;;23.92;13.23;;;;;;;10.85;77.58;100693.75;5025344;28;20057;-74
2022/04/23 00:51:51;;;;;;;23.98;12.30;;;;;;;10.80;77.91;100684.97;5022226;28;20037;-75
2022/04/23 00:54:22;;;;;;;22.38;14.40;;;;;;;10.77;77.78;100691.06;5029172;28;20045;-76
2022/04/23 00:56:50;;;;;;;23.15;12.63;;;;;;;10.73;78.22;100691.00;5024904;28;20121;-75
2022/04/23 00:59:23;;;;;;;22.83;13.75;;;;;;;10.70;78.75;100683.13;5022756;28;20123;-73
2022/04/23 01:01:53;;;;;;;22.20;12.90;;;;;;;10.72;78.24;100687.50;5026144;28;20060;-74
2022/04/23 01:04:23;;;;;;;22.60;13.32;;;;;;;10.74;78.44;100693.66;5032385;28;20056;-74
2022/04/23 01:06:57;;;;;;;23.25;13.82;;;;;;;10.66;78.98;100684.81;5021637;28;20068;-75
2022/04/23 01:09:27;;;;;;;21.30;14.18;;;;;;;10.66;78.96;100684.81;5025367;28;20120;-74
2022/04/23 01:11:58;;;;;;;24.73;12.93;;;;;;;10.62;79.26;100680.41;5023201;28;20053;-75
2022/04/23 01:14:30;;;;;;;25.13;13.07;;;;;;;10.60;79.45;100690.00;5020707;28;20144;-74
2022/04/23 01:16:58;;;;;;;26.02;13.68;;;;;;;10.59;79.79;100684.75;5027224;28;20049;-75
2022/04/23 01:19:28;;;;;;;24.52;13.60;;;;;;;10.61;79.54;100678.66;5025619;28;20050;-75
2022/04/23 01:21:58;;;;;;;25.13;13.75;;;;;;;10.58;79.80;100696.97;5025780;28;20063;-75
2022/04/23 01:24:30;;;;;;;30.67;14.43;;;;;;;10.55;79.89;100688.19;5023359;28;20333;-75
2022/04/23 01:26:59;;;;;;;23.77;13.80;;;;;;;10.46;80.50;100684.59;5024315;28;20511;-75
2022/04/23 01:29:27;;;;;;;29.15;14.70;;;;;;;10.48;80.46;100687.25;5028954;28;20137;-74
2022/04/23 01:31:58;;;;;;;24.10;13.55;;;;;;;10.43;80.90;100688.94;5031265;28;20119;-75
2022/04/23 01:34:26;;;;;;;25.50;14.27;;;;;;;10.43;80.97;100686.31;5030623;28;20130;-76
2022/04/23 01:36:58;;;;;;;27.83;14.82;;;;;;;10.39;81.55;100695.03;5030724;28;20124;-76
2022/04/23 01:39:29;;;;;;;26.30;15.43;;;;;;;10.39;81.95;100690.69;5031914;28;20461;-75
2022/04/23 01:42:00;;;;;;;30.20;16.05;;;;;;;10.43;81.43;100688.94;5026282;28;20172;-74
2022/04/23 01:44:28;;;;;;;30.30;16.02;;;;;;;10.36;82.38;100695.00;5028354;28;20056;-76
2022/04/23 01:46:56;;;;;;;25.40;15.70;;;;;;;10.32;82.55;100693.22;5029046;28;20057;-71
2022/04/23 01:49:26;;;;;;;31.48;15.75;;;;;;;10.34;82.20;100689.75;5025017;28;20071;-70
2022/04/23 01:51:55;;;;;;;25.55;15.23;;;;;;;10.39;82.19;100692.41;5027922;28;20045;-71
2022/04/23 01:54:28;;;;;;;30.13;16.70;;;;;;;10.36;82.47;100689.75;5031010;28;20119;-70
2022/04/23 01:56:58;;;;;;;32.38;17.25;;;;;;;10.35;82.51;100685.38;5033808;28;20041;-72
2022/04/23 01:59:29;;;;;;;34.47;16.52;;;;;;;10.32;82.84;100699.34;5030878;28;20647;-70
2022/04/23 02:01:58;;;;;;;29.80;16.73;;;;;;;10.28;83.19;100689.66;5030352;28;20757;-69
2022/04/23 02:04:28;;;;;;;36.38;17.45;;;;;;;10.20;83.72;100683.44;5029072;28;20045;-69
2022/04/23 02:06:58;;;;;;;32.70;18.00;;;;;;;10.25;83.66;100697.50;5027735;28;20052;-70
2022/04/23 02:09:28;;;;;;;32.85;17.20;;;;;;;10.18;83.79;100685.16;5028459;28;20057;-70
2022/04/23 02:11:56;;;;;;;31.08;17.63;;;;;;;10.20;84.05;100686.06;5029074;28;20064;-70
2022/04/23 02:14:25;;;;;;;31.92;17.92;;;;;;;10.21;84.17;100679.09;5027582;28;20095;-70
2022/04/23 02:16:53;;;;;;;32.72;17.13;;;;;;;10.22;83.98;100683.47;5025772;28;20470;-70
2022/04/23 02:19:26;;;;;;;32.47;17.70;;;;;;;10.14;84.40;100681.59;5027357;28;20132;-71
2022/04/23 02:21:54;;;;;;;35.63;18.73;;;;;;;10.15;84.63;100691.22;5031121;28;20052;-70
2022/04/23 02:24:25;;;;;;;39.70;20.55;;;;;;;10.22;84.48;100688.72;5027996;28;20055;-69
2022/04/23 02:26:55;;;;;;;40.00;18.90;;;;;;;10.20;84.78;100686.06;5027220;28;20478;-70
2022/04/23 02:29:23;;;;;;;35.38;17.80;;;;;;;10.19;84.93;100688.66;5031764;28;20044;-70
2022/04/23 02:31:53;;;;;;;38.00;20.92;;;;;;;10.13;85.15;100692.06;5028598;28;20037;-68
2022/04/23 02:34:22;;;;;;;39.13;19.25;;;;;;;10.12;85.21;100687.69;5028775;28;20120;-70
2022/04/23 02:36:50;;;;;;;39.50;20.33;;;;;;;10.10;85.55;100687.66;5028871;28;20113;-77
2022/04/23 02:39:24;;;;;;;39.13;20.40;;;;;;;10.07;85.57;100692.88;5027047;28;20045;-75
2022/04/23 02:41:57;;;;;;;42.63;21.17;;;;;;;10.02;85.91;100689.31;5030362;28;20079;-74
2022/04/23 02:44:28;;;;;;;37.95;20.75;;;;;;;10.04;86.13;100686.72;5027378;28;20087;-74
2022/04/23 02:47:00;;;;;;;43.25;22.13;;;;;;;9.97;86.20;100692.72;5028153;28;20056;-75
2022/04/23 02:49:28;;;;;;;40.15;20.98;;;;;;;10.01;86.20;100681.44;5032840;28;20119;-75
2022/04/23 02:51:58;;;;;;;43.58;22.95;;;;;;;10.00;86.30;100696.25;5023231;28;20053;-74
2022/04/23 02:54:27;;;;;;;40.38;21.25;;;;;;;9.95;86.40;100700.56;5031719;28;20490;-75
2022/04/23 02:57:00;;;;;;;41.03;21.23;;;;;;;9.98;86.69;100691.88;5026660;28;20037;-75
2022/04/23 02:59:28;;;;;;;49.97;23.20;;;;;;;9.92;87.13;100689.16;5027354;28;20684;-74
2022/04/23 03:02:00;;;;;;;42.78;22.67;;;;;;;9.91;86.91;100693.53;5028582;28;20127;-69
2022/04/23 03:04:28;;;;;;;44.05;23.33;;;;;;;9.85;87.58;100690.81;5025154;28;20056;-74
2022/04/23 03:06:59;;;;;;;44.42;21.35;;;;;;;9.80;87.60;100689.88;5024818;28;20226;-70
2022/04/23 03:09:27;;;;;;;43.05;23.23;;;;;;;9.82;88.02;100699.50;5031284;28;20057;-70
2022/04/23 03:11:58;;;;;;;47.40;22.80;;;;;;;9.76;88.19;100691.56;5026327;28;20458;-69
2022/04/23 03:14:27;;;;;;;42.58;21.75;;;;;;;9.80;88.04;100689.88;5026012;28;20701;-70
2022/04/23 03:16:58;;;;;;;45.55;23.55;;;;;;;9.80;87.91;100689.88;5021041;28;20196;-74
2022/04/23 03:19:29;;;;;;;47.65;24.20;;;;;;;9.75;88.28;100691.56;5027753;28;20045;-74
2022/04/23 03:22:00;;;;;;;49.10;25.50;;;;;;;9.75;88.63;100691.56;5026518;28;20140;-75
2022/04/23 03:24:28;;;;;;;44.10;22.50;;;;;;;9.73;88.51;100690.66;5022462;28;20674;-70
2022/04/23 03:26:58;;;;;;;51.22;24.20;;;;;;;9.68;89.08;100684.47;5026399;28;20714;-75
2022/04/23 03:29:29;;;;;;;47.55;22.40;;;;;;;9.70;89.30;100685.38;5023456;28;20046;-74
2022/04/23 03:31:57;;;;;;;49.25;24.48;;;;;;;9.70;88.99;100691.47;5021948;28;20052;-70
2022/04/23 03:34:26;;;;;;;45.70;24.35;;;;;;;9.72;89.26;100681.03;5027026;28;20063;-69
2022/04/23 03:36:57;;;;;;;55.42;25.17;;;;;;;9.66;89.53;100686.19;5029369;28;20117;-75
2022/04/23 03:39:27;;;;;;;50.17;23.42;;;;;;;9.69;89.50;100686.22;5022673;28;20096;-74
2022/04/23 03:41:57;;;;;;;48.28;24.13;;;;;;;9.69;89.74;100681.00;5026583;28;20057;-74
2022/04/23 03:44:29;;;;;;;51.47;25.67;;;;;;;9.68;89.64;100685.34;5025339;28;20504;-75
2022/04/23 03:46:58;;;;;;;51.08;24.60;;;;;;;9.71;89.80;100684.50;5027746;28;20817;-73
2022/04/23 03:49:30;;;;;;;53.33;27.20;;;;;;;9.75;89.51;100681.94;5029595;28;20132;-74
2022/04/23 03:51:59;;;;;;;51.03;25.20;;;;;;;9.82;89.38;100683.81;5029019;28;20063;-77
2022/04/23 03:54:27;;;;;;;53.55;26.00;;;;;;;9.77;89.71;100679.34;5029265;28;20123;-75
2022/04/23 03:56:57;;;;;;;53.40;24.83;;;;;;;9.75;89.72;100675.84;5027029;28;20052;-75
2022/04/23 03:59:29;;;;;;;56.22;25.13;;;;;;;9.72;89.84;100670.56;5023745;28;20970;-74
2022/04/23 04:02:02;;;;;;;57.67;27.95;;;;;;;9.71;90.04;100668.78;5023917;28;20069;-73
2022/04/23 04:04:32;;;;;;;57.45;26.92;;;;;;;9.64;90.46;100666.94;5025021;28;20045;-74
2022/04/23 04:07:01;;;;;;;52.75;25.85;;;;;;;9.70;90.20;100670.53;5025613;28;20053;-75
2022/04/23 04:09:29;;;;;;;59.70;27.75;;;;;;;9.60;90.59;100666.03;5030080;28;20830;-74
2022/04/23 04:12:03;;;;;;;60.53;28.10;;;;;;;9.65;90.58;100668.72;5024784;28;20100;-75
2022/04/23 04:14:36;;;;;;;61.08;27.13;;;;;;;9.66;90.45;100662.63;5024699;28;20059;-74
2022/04/23 04:17:09;;;;;;;62.60;27.55;;;;;;;9.62;90.58;100661.69;5028627;28;20069;-74
2022/04/23 04:19:38;;;;;;;52.55;25.98;;;;;;;9.55;91.07;100657.22;5031056;28;20060;-70
2022/04/23 04:22:08;;;;;;;60.28;27.33;;;;;;;9.49;91.44;100655.41;5028202;28;20068;-70
2022/04/23 04:24:37;;;;;;;61.97;28.63;;;;;;;9.50;91.79;100648.41;5026548;28;20083;-70
2022/04/23 04:27:06;;;;;;;51.90;26.35;;;;;;;9.48;91.89;100651.00;5025763;28;20540;-70
2022/04/23 04:29:36;;;;;;;56.38;27.65;;;;;;;9.38;92.08;100646.50;5026875;28;20064;-75
2022/04/23 04:32:07;;;;;;;58.45;26.95;;;;;;;9.32;92.57;100646.44;5028626;28;20060;-75
2022/04/23 04:34:35;;;;;;;54.72;27.23;;;;;;;9.22;93.37;100643.66;5026666;28;20539;-70
2022/04/23 04:37:07;;;;;;;55.40;27.98;;;;;;;9.24;93.31;100644.56;5028941;28;20454;-70
2022/04/23 04:39:36;;;;;;;51.22;26.52;;;;;;;9.21;93.58;100640.16;5025978;28;20045;-70
2022/04/23 04:42:07;;;;;;;54.20;26.35;;;;;;;9.20;93.61;100641.03;5024188;28;20056;-71
2022/04/23 04:44:37;;;;;;;57.08;28.70;;;;;;;9.18;94.02;100647.97;5025450;28;20057;-74
2022/04/23 04:47:10;;;;;;;58.75;26.88;;;;;;;9.18;94.18;100650.59;5028171;28;20061;-75
2022/04/23 04:49:37;;;;;;;57.13;27.58;;;;;;;9.15;94.49;100651.41;5026670;28;20110;-74
2022/04/23 04:52:07;;;;;;;57.72;26.65;;;;;;;9.16;94.15;100654.91;5024116;28;20061;-74
2022/04/23 04:54:35;;;;;;;52.42;25.05;;;;;;;9.09;94.87;100656.53;5028805;28;20064;-74
2022/04/23 04:57:05;;;;;;;55.17;24.63;;;;;;;9.10;94.56;100658.31;5033390;28;20059;-75
2022/04/23 04:59:34;;;;;;;60.53;26.83;;;;;;;9.04;95.39;100665.19;5032945;28;20846;-73
2022/04/23 05:02:04;;;;;;;52.70;26.92;;;;;;;9.01;95.42;100662.50;5030404;28;20061;-74
2022/04/23 05:04:34;;;;;;;51.72;25.60;;;;;;;9.00;95.69;100668.59;5031141;28;20057;-74
2022/04/23 05:07:04;;;;;;;58.38;28.20;;;;;;;9.03;95.68;100671.25;5028055;28;20509;-75
2022/04/23 05:09:34;;;;;;;56.45;28.05;;;;;;;9.05;95.70;100672.16;5033483;28;20057;-74
2022/04/23 05:12:02;;;;;;;53.55;26.30;;;;;;;9.07;95.47;100675.69;5027931;28;20148;-74
2022/04/23 05:14:30;;;;;;;56.33;26.92;;;;;;;9.09;95.70;100673.97;5033422;28;20052;-74
2022/04/23 05:16:58;;;;;;;52.75;26.65;;;;;;;9.10;95.72;100674.00;5030763;28;20103;-76
2022/04/23 05:19:28;;;;;;;52.25;28.15;;;;;;;9.15;95.42;100679.31;5029032;28;20073;-75
2022/04/23 05:21:59;;;;;;;49.58;24.05;;;;;;;9.22;95.07;100667.22;5031689;28;20103;-74
2022/04/23 05:24:27;;;;;;;55.63;26.75;;;;;;;9.20;95.12;100663.69;5031019;28;20120;-76
2022/04/23 05:26:55;;;;;;;60.78;27.33;;;;;;;9.25;95.17;100670.75;5028971;28;20045;-74
2022/04/23 05:29:23;;;;;;;50.50;25.83;;;;;;;9.32;94.65;100670.00;5032152;28;20041;-70
2022/04/23 05:31:53;;;;;;;53.40;25.67;;;;;;;9.32;94.92;100671.72;5035522;28;20533;-75
2022/04/23 05:34:25;;;;;;;49.85;26.25;;;;;;;9.43;94.30;100671.00;5034154;28;20053;-72
2022/04/23 05:36:55;;;;;;;45.88;25.55;;;;;;;9.52;94.06;100672.88;5033780;28;20069;-75
2022/04/23 05:39:23;;;;;;;48.33;24.92;;;;;;;9.58;94.05;100669.47;5030912;28;20083;-71
2022/04/23 05:41:53;;;;;;;46.65;24.33;;;;;;;9.68;93.26;100668.75;5025491;28;20111;-71
2022/04/23 05:44:24;;;;;;;50.70;25.83;;;;;;;9.81;92.75;100670.69;5029689;28;20045;-71
2022/04/23 05:46:53;;;;;;;53.15;25.33;;;;;;;9.90;92.38;100678.66;5030753;28;20040;-70
2022/04/23 05:49:24;;;;;;;45.28;24.35;;;;;;;10.01;91.63;100674.44;5032925;28;20280;-70
2022/04/23 05:52:14;;;;;;;45.08;23.77;;;;;;;10.12;90.85;100678.09;5029116;28;20044;-70
2022/04/23 05:54:42;;;;;;;45.42;24.30;;;;;;;10.29;90.48;100677.44;5029320;28;20102;-69
2022/04/23 05:57:10;;;;;;;48.45;25.38;;;;;;;10.31;89.86;100684.47;5022871;28;23451;-72
2022/04/23 05:59:38;;;;;;;48.80;24.10;;;;;;;10.41;89.44;100681.06;5023310;28;20405;-69
2022/04/23 06:02:08;;;;;;;37.55;21.60;;;;;;;10.51;88.59;100682.03;5025603;28;20098;-70
2022/04/23 06:04:39;;;;;;;49.90;25.30;;;;;;;10.49;89.01;100678.53;5031664;28;20053;-70
2022/04/23 06:07:07;;;;;;;43.45;23.48;;;;;;;10.69;88.06;100679.63;5023019;28;20057;-75
2022/04/23 06:09:37;;;;;;;40.67;22.80;;;;;;;10.82;87.43;100675.38;5028573;28;20057;-75
2022/04/23 06:12:06;;;;;;;45.83;24.95;;;;;;;10.76;86.93;100673.56;5027365;28;20221;-75
2022/04/23 06:14:35;;;;;;;42.50;23.17;;;;;;;10.94;86.55;100677.22;5029359;28;20061;-75
2022/04/23 06:17:07;;;;;;;40.88;22.33;;;;;;;11.11;86.13;100683.50;5027211;28;20045;-77
2022/04/23 06:19:37;;;;;;;47.05;24.52;;;;;;;11.23;85.30;100669.59;5028538;28;20057;-76
2022/04/23 06:22:07;;;;;;;38.05;23.13;;;;;;;11.29;84.34;100665.28;5028096;28;20149;-76
2022/04/23 06:24:35;;;;;;;40.78;22.33;;;;;;;11.45;83.65;100667.13;5024700;28;20057;-76
2022/04/23 06:27:06;;;;;;;41.88;22.85;;;;;;;11.62;83.31;100667.22;5026226;28;20061;-70
2022/04/23 06:29:38;;;;;;;39.67;21.90;;;;;;;11.73;82.75;100662.03;5028051;28;20049;-69
2022/04/23 06:32:10;;;;;;;38.05;23.00;;;;;;;11.78;82.13;100661.22;5033180;28;20049;-77
2022/04/23 06:34:39;;;;;;;38.25;23.30;;;;;;;11.79;81.93;100654.22;5028608;28;20400;-70
2022/04/23 06:37:09;;;;;;;42.78;22.92;;;;;;;11.85;81.27;100662.13;5029712;28;20072;-75
2022/04/23 06:39:37;;;;;;;42.42;23.38;;;;;;;12.08;80.92;100657.00;5028084;28;20132;-75
2022/04/23 06:42:09;;;;;;;43.65;23.17;;;;;;;11.93;80.14;100654.28;5029929;28;20057;-75
2022/04/23 06:44:39;;;;;;;41.88;24.10;;;;;;;12.18;79.17;100655.28;5028267;28;20064;-75
2022/04/23 06:47:08;;;;;;;39.85;22.98;;;;;;;12.02;79.62;100660.47;5032404;28;20055;-76
2022/04/23 06:49:36;;;;;;;40.15;23.73;;;;;;;12.28;78.61;100643.94;5032543;28;20060;-77
2022/04/23 06:52:07;;;;;;;37.90;22.45;;;;;;;12.08;78.75;100651.75;5031521;28;20053;-76
2022/04/23 06:54:36;;;;;;;38.25;22.95;;;;;;;12.20;78.19;100648.28;5034331;28;20835;-76
2022/04/23 06:57:06;;;;;;;40.47;22.55;;;;;;;12.27;77.97;100644.81;5030706;28;20091;-76
2022/04/23 06:59:34;;;;;;;37.28;23.52;;;;;;;12.60;77.38;100647.47;5033492;28;20513;-75
2022/04/23 07:02:03;;;;;;;36.45;21.73;;;;;;;12.43;76.83;100651.88;5031021;28;20059;-76
2022/04/23 07:04:33;;;;;;;39.90;23.38;;;;;;;12.50;76.51;100650.09;5033180;28;20037;-75
2022/04/23 07:07:01;;;;;;;34.72;21.45;;;;;;;12.65;76.22;100651.00;5028302;28;20053;-74
2022/04/23 07:09:29;;;;;;;38.67;22.23;;;;;;;12.73;75.95;100646.63;5027969;28;20053;-73
2022/04/23 07:11:58;;;;;;;39.17;22.13;;;;;;;13.10;74.43;100651.94;5031333;28;20170;-79
2022/04/23 07:14:31;;;;;;;36.25;20.83;;;;;;;13.15;73.33;100639.63;5037583;28;20595;-79
2022/04/23 07:17:07;;;;;;;32.45;20.52;;;;;;;13.01;73.04;100646.66;5041243;28;20048;-80
2022/04/23 07:19:38;;;;;;;33.70;21.65;;;;;;;13.04;73.00;100637.00;5045514;28;20082;-80
2022/04/23 07:22:08;;;;;;;35.88;21.05;;;;;;;13.06;72.65;100642.28;5046199;28;20067;-78
2022/04/23 07:24:37;;;;;;;32.30;20.80;;;;;;;13.21;72.65;100654.59;5030949;28;20049;-73
2022/04/23 07:27:07;;;;;;;37.15;21.73;;;;;;;13.11;72.70;100645.78;5027903;28;20079;-75
2022/04/23 07:29:53;;;;;;;35.28;21.58;;;;;;;13.19;72.75;100630.00;5031443;28;20051;-73
2022/04/23 07:32:30;;;;;;;33.28;20.58;;;;;;;13.37;71.57;100641.41;5027785;28;20056;-72
2022/04/23 07:38:25;;;;;;;33.35;20.33;;;;;;;13.58;70.68;100629.03;5024268;28;20095;-74
2022/04/23 07:41:22;;;;;;;31.15;19.77;;;;;;;13.66;70.17;100635.19;5027335;28;20128;-76
2022/04/23 07:44:13;;;;;;;35.03;20.60;;;;;;;13.44;70.13;100631.75;5025018;28;20096;-75
2022/04/23 07:57:05;;;;;;;34.10;20.70;;;;;;;14.07;67.79;100619.22;5052776;28;20075;-82
2022/04/23 07:59:33;;;;;;;35.47;20.38;;;;;;;14.36;66.91;100613.78;5050170;28;20084;-84
2022/04/23 08:02:02;;;;;;;33.05;19.95;;;;;;;14.35;66.71;100615.56;5047142;28;20053;-77
2022/04/23 08:04:33;;;;;;;33.80;19.58;;;;;;;14.49;66.58;100620.78;5030600;28;20080;-77
2022/04/23 08:07:03;;;;;;;30.92;19.73;;;;;;;14.41;65.72;100609.38;5031216;28;20053;-78
2022/04/23 08:09:37;;;;;;;29.95;18.83;;;;;;;14.66;65.74;100608.31;5038313;28;20137;-79
2022/04/23 08:12:16;;;;;;;33.13;19.65;;;;;;;15.07;64.50;100612.41;5032669;28;20512;-79
2022/04/23 08:14:48;;;;;;;29.67;18.40;;;;;;;14.79;64.07;100605.59;5036538;28;20221;-78
2022/04/23 08:17:19;;;;;;;30.27;19.83;;;;;;;14.86;63.68;100592.34;5029844;28;20045;-76
2022/04/23 08:19:48;;;;;;;30.88;19.65;;;;;;;15.07;63.67;100593.91;5031306;28;20069;-75
2022/04/23 08:22:26;;;;;;;31.52;20.05;;;;;;;14.89;63.38;100596.72;5028766;28;20107;-70
2022/04/23 08:24:56;;;;;;;33.20;20.52;;;;;;;14.83;63.30;100588.84;5030759;28;20052;-70
2022/04/23 08:27:27;;;;;;;32.58;20.02;;;;;;;14.89;62.51;100591.44;5025420;28;20049;-69
2022/04/23 08:32:42;;;;;;;30.80;18.45;;;;;;;15.24;61.96;100597.28;5023989;28;20489;-70
2022/04/23 08:35:10;;;;;;;31.48;19.58;;;;;;;15.26;62.02;100584.94;5030291;28;20052;-71
2022/04/23 08:37:39;;;;;;;31.15;18.52;;;;;;;15.42;61.39;100595.34;5028522;28;20056;-71
2022/04/23 08:40:10;;;;;;;29.42;18.13;;;;;;;15.18;61.00;100588.53;5032604;28;20057;-75
2022/04/23 08:42:39;;;;;;;30.23;18.00;;;;;;;14.84;62.16;100583.56;5034019;28;20163;-76
2022/04/23 08:45:10;;;;;;;29.50;19.83;;;;;;;14.81;62.07;100585.34;5037388;28;20053;-77
2022/04/23 08:47:44;;;;;;;30.20;18.00;;;;;;;15.03;62.10;100585.16;5039202;28;20060;-76
2022/04/23 08:50:14;;;;;;;30.80;19.65;;;;;;;15.25;61.73;100580.53;5034464;28;20068;-75
2022/04/23 08:52:49;;;;;;;29.10;18.52;;;;;;;14.96;62.00;100578.16;5040268;28;20056;-76
2022/04/23 08:55:19;;;;;;;30.10;17.73;;;;;;;15.24;61.11;100573.50;5035413;28;20531;-70
2022/04/23 08:57:54;;;;;;;28.95;18.10;;;;;;;15.48;60.09;100582.06;5034157;28;20537;-77
2022/04/23 09:00:27;;;;;;;30.63;19.50;;;;;;;15.23;60.32;100579.69;5034148;28;20071;-71
2022/04/23 09:02:56;;;;;;;26.70;17.42;;;;;;;15.50;60.22;100569.72;5032771;28;20057;-70
2022/04/23 09:05:27;;;;;;;32.95;18.50;;;;;;;15.79;59.51;100572.91;5030364;28;20102;-71
2022/04/23 09:08:00;;;;;;;30.75;19.27;;;;;;;15.92;59.08;100565.69;5032517;28;20059;-70
2022/04/23 09:10:44;;;;;;;33.17;19.88;;;;;;;16.13;58.08;100577.75;5032357;28;20737;-71
2022/04/23 09:13:12;;;;;;;;;;;;;;;15.95;57.42;100576.22;5027793;28;20493;-76
2022/04/23 09:24:10;;;;;;;29.25;19.17;;;;;;;16.08;56.77;100579.59;5028017;28;20083;-75
2022/04/23 09:26:40;;;;;;;29.58;18.20;;;;;;;15.88;56.77;100574.53;5025950;28;20060;-76
2022/04/23 09:29:24;;;;;;;27.80;17.98;;;;;;;15.88;57.34;100578.06;5026551;28;20229;-76
2022/04/23 09:32:08;;;;;;;29.10;18.25;;;;;;;16.01;57.36;100573.50;5024815;28;20076;-75
2022/04/23 09:34:36;;;;;;;;;;;;;;;15.84;57.05;100581.66;5028751;28;20044;-70
2022/04/23 09:37:05;;;;;;;28.15;18.10;;;;;;;15.81;57.05;100575.53;5026312;28;19983;-75
2022/04/23 09:39:36;;;;;;;32.97;17.63;;;;;;;15.99;57.05;100578.81;5026960;28;20049;-71
2022/04/23 09:42:15;;;;;;;29.85;18.20;;;;;;;16.25;56.83;100567.88;5027928;28;20674;-71
2022/04/23 09:44:45;;;;;;;29.25;17.85;;;;;;;16.53;56.38;100568.34;5029596;28;20037;-70
2022/04/23 09:47:29;;;;;;;27.15;18.10;;;;;;;16.42;55.13;100564.97;5031926;28;20103;-70
2022/04/23 09:49:58;;;;;;;29.75;18.15;;;;;;;15.90;56.55;100575.41;5031406;28;20147;-72
2022/04/23 09:52:30;;;;;;;28.20;17.23;;;;;;;15.78;56.25;100576.44;5031626;28;20041;-76
2022/04/23 09:55:22;;;;;;;34.53;19.15;;;;;;;15.97;57.46;100580.59;5037510;28;20128;-70
2022/04/23 09:57:50;;;;;;;35.95;20.15;;;;;;;16.44;57.01;100572.91;5032170;28;20482;-71
2022/04/23 10:00:22;;;;;;;28.90;18.42;;;;;;;16.57;55.73;100575.34;5032463;28;20052;-72
2022/04/23 10:02:56;;;;;;;31.27;19.02;;;;;;;17.05;55.65;100572.78;5027713;28;20071;-70
2022/04/23 10:05:29;;;;;;;28.98;18.73;;;;;;;17.02;54.94;100580.78;5032456;28;20049;-72
2022/04/23 10:07:58;;;;;;;29.30;17.98;;;;;;;17.40;54.77;100574.81;5026576;28;20049;-72
2022/04/23 10:10:34;;;;;;;31.73;19.58;;;;;;;16.83;54.76;100576.69;5033125;28;20054;-70
2022/04/23 10:13:04;;;;;;;28.30;18.65;;;;;;;16.47;55.53;100576.38;5032019;28;20493;-75
2022/04/23 10:15:37;;;;;;;32.55;18.40;;;;;;;16.51;55.35;100586.03;5034795;28;20049;-76
2022/04/23 10:18:08;;;;;;;33.88;20.45;;;;;;;16.83;54.91;100574.06;5034618;28;20102;-75
2022/04/23 10:20:40;;;;;;;35.67;20.42;;;;;;;16.94;54.93;100575.63;5030418;28;20060;-76
2022/04/23 10:23:21;;;;;;;32.63;19.50;;;;;;;16.65;54.91;100576.09;5032877;28;20064;-78
2022/04/23 10:26:27;;;;;;;35.38;20.42;;;;;;;16.38;55.71;100576.50;5032738;28;20057;-78
2022/04/23 10:28:57;;;;;;;35.55;19.95;;;;;;;16.30;56.07;100565.16;5032888;28;20061;-71
2022/04/23 10:31:28;;;;;;;30.35;18.92;;;;;;;16.23;56.68;100566.16;5032468;28;20591;-70
2022/04/23 10:33:59;;;;;;;34.03;19.85;;;;;;;16.31;56.38;100572.19;5027882;28;20117;-71
2022/04/23 10:36:27;;;;;;;32.35;19.10;;;;;;;16.72;55.39;100566.28;5027556;28;20541;-71
2022/04/23 10:39:23;;;;;;;38.60;20.40;;;;;;;16.35;56.04;100568.63;5028794;28;20045;-71
2022/04/23 10:41:56;;;;;;;31.45;19.50;;;;;;;16.09;56.42;100568.09;5032788;28;20041;-71
2022/04/23 10:44:24;;;;;;;31.50;20.63;;;;;;;16.07;56.69;100556.66;5032420;28;20049;-77
2022/04/23 10:46:56;;;;;;;29.35;18.45;;;;;;;16.22;56.90;100553.81;5033915;28;20470;-76
2022/04/23 10:49:28;;;;;;;31.83;19.65;;;;;;;16.55;55.84;100555.94;5031792;28;20500;-76
2022/04/23 10:51:59;;;;;;;30.05;18.13;;;;;;;17.15;54.77;100563.78;5030331;28;21419;-77
2022/04/23 10:54:55;;;;;;;37.08;19.50;;;;;;;17.40;53.69;100548.28;5035801;28;20056;-76
2022/04/23 10:57:28;;;;;;;35.10;20.38;;;;;;;17.22;54.00;100557.47;5032712;28;20041;-76
2022/04/23 11:00:10;;;;;;;32.40;19.92;;;;;;;16.88;54.45;100553.66;5032372;28;20107;-70
2022/04/23 11:02:39;;;;;;;37.40;20.55;;;;;;;16.74;55.09;100556.53;5027446;28;20060;-70
2022/04/23 11:14:45;;;;;;;34.10;20.60;;;;;;;18.00;52.36;100541.75;5027282;28;20053;-76
2022/04/23 11:17:21;;;;;;;31.73;18.60;;;;;;;18.14;51.55;100542.34;5026597;28;20599;-77
2022/04/23 11:19:52;;;;;;;34.33;20.55;;;;;;;17.76;52.36;100532.56;5032581;28;20084;-78
2022/04/23 11:22:22;;;;;;;34.30;20.50;;;;;;;17.58;51.97;100539.97;5031672;28;20055;-77
2022/04/23 11:24:51;;;;;;;32.65;19.65;;;;;;;17.43;52.90;100542.94;5031877;28;20055;-79
2022/04/23 11:27:26;;;;;;;33.63;19.73;;;;;;;17.69;51.94;100539.75;5032944;28;20369;-77
2022/04/23 11:29:59;;;;;;;31.70;19.17;;;;;;;17.75;52.27;100536.09;5034302;28;20098;-78
2022/04/23 11:32:28;;;;;;;38.42;21.77;;;;;;;18.11;51.59;100537.97;5029558;28;20053;-77
2022/04/23 11:34:58;;;;;;;32.05;20.83;;;;;;;18.00;50.49;100512.56;5031813;28;20113;-72
2022/04/23 11:37:30;;;;;;;32.22;19.48;;;;;;;18.00;49.75;100531.16;5028928;28;20061;-72
2022/04/23 11:40:09;;;;;;;34.70;21.63;;;;;;;18.00;50.54;100529.38;5032452;28;20064;-77
2022/04/23 11:42:39;;;;;;;39.65;21.10;;;;;;;18.20;50.89;100535.09;5032711;28;20490;-71
2022/04/23 11:45:10;;;;;;;36.38;22.17;;;;;;;18.32;50.26;100531.28;5029785;28;20245;-70
2022/04/23 11:47:39;;;;;;;38.28;21.90;;;;;;;18.18;50.42;100526.31;5032211;28;20061;-78
2022/04/23 11:50:12;;;;;;;33.55;20.17;;;;;;;18.66;50.48;100517.25;5033706;28;20052;-77
2022/04/23 11:52:43;;;;;;;35.40;19.73;;;;;;;18.42;49.89;100522.22;5036478;28;20147;-70
2022/04/23 11:55:23;;;;;;;41.72;21.70;;;;;;;18.45;50.09;100516.81;5033727;28;20104;-78
2022/04/23 11:57:57;;;;;;;36.60;20.77;;;;;;;18.36;49.70;100527.66;5034246;28;20132;-77
2022/04/23 12:00:28;;;;;;;38.13;20.98;;;;;;;18.08;50.00;100530.06;5035694;28;20171;-79
2022/04/23 12:02:59;;;;;;;31.83;20.25;;;;;;;17.87;50.42;100534.06;5031352;28;20061;-71
2022/04/23 12:05:29;;;;;;;33.80;19.80;;;;;;;17.79;50.64;100516.56;5031551;28;20183;-78